< < Back
Terminal Aerodrome Forecast


Current Version              Previous Versions:   1  2  3  4  5  6  7  8  9  

Terminal Aerodrome Forecast

405
FTUS42 KMLB 241700 AAA
TAFDAB
TAF AMD
KDAB 241746Z 2418/2518 10005KT P6SM VCTS SCT035CB BKN050 OVC120
      TEMPO 2419/2421 3SM TSRA SCT012 BKN020CB OVC050
     FM242100 13007KT P6SM VCTS SCT035CB BKN050
      TEMPO 2421/2423 5SM SHRA BKN030
     FM250000 VRB04KT P6SM FEW030 SCT250
     FM250600 23003KT P6SM FEW020
     FM251400 23007KT P6SM SCT025 SCT050=



Latest METAR

521
SAUS80 KWBC 250500
MTRDAB
METAR KDAB 250453Z 20005KT 10SM FEW150 24/23 A3004 RMK AO2 SLP170
T02440233 403330239


USA.gov is the U.S. government's official web portal to all federal, state and local government web resources and services.